Time;durP1;ratioP1;P1;durP2;ratioP2;P2;SDS_P1;SDS_P2;PMS_P1;PMS_P2;Temp;Humidity;BMP_temperature;BMP_pressure;BME280_temperature;BME280_humidity;BME280_pressure;Samples;Min_cycle;Max_cycle;Signal;HPM_P1;HPM_P2
2021/12/16 00:09:14;;;;;;;16.90;8.52;;;8.50;99.90;;;;;;5064493;28;20048;-80
2021/12/16 00:31:20;;;;;;;23.00;10.40;;;8.30;99.90;;;;;;5071933;28;20057;-81
2021/12/16 00:33:58;;;;;;;18.75;10.00;;;8.30;99.90;;;;;;5053530;28;20049;-81
2021/12/16 00:36:24;;;;;;;15.77;8.77;;;8.40;99.90;;;;;;5055812;28;20133;-81
2021/12/16 00:38:51;;;;;;;22.13;10.90;;;8.40;99.90;;;;;;5059986;28;20072;-80
2021/12/16 00:41:18;;;;;;;23.67;10.55;;;8.40;99.90;;;;;;5057184;28;20119;-81
2021/12/16 00:43:50;;;;;;;31.35;12.55;;;8.40;99.90;;;;;;5062409;28;20057;-80
2021/12/16 00:46:31;;;;;;;21.55;10.55;;;8.40;99.90;;;;;;5058329;28;20049;-80
2021/12/16 00:54:25;;;;;;;16.38;9.48;;;8.40;99.90;;;;;;5070032;28;20048;-81
2021/12/16 00:56:55;;;;;;;23.23;10.80;;;8.40;99.90;;;;;;5056904;28;20133;-81
2021/12/16 00:59:24;;;;;;;;;;;8.40;99.90;;;;;;5066812;28;20527;-80
2021/12/16 01:01:58;;;;;;;23.15;10.52;;;8.40;99.90;;;;;;5057703;28;19927;-80
2021/12/16 01:34:48;;;;;;;31.73;11.43;;;8.40;99.90;;;;;;5072059;28;20435;-81
2021/12/16 01:40:12;;;;;;;19.20;10.68;;;8.40;99.90;;;;;;5060930;28;20045;-81
2021/12/16 01:48:49;;;;;;;21.45;11.45;;;8.30;99.90;;;;;;5073851;28;20140;-81
2021/12/16 01:51:16;;;;;;;23.33;11.05;;;8.30;99.90;;;;;;5074007;28;20048;-81
2021/12/16 01:54:15;;;;;;;21.30;10.70;;;8.30;99.90;;;;;;5085770;28;20129;-80
2021/12/16 01:56:46;;;;;;;22.90;10.57;;;8.40;99.90;;;;;;5072648;28;20120;-81
2021/12/16 01:59:18;;;;;;;24.90;12.13;;;8.40;99.90;;;;;;5080367;28;20071;-82
2021/12/16 02:01:45;;;;;;;22.92;11.18;;;8.40;99.90;;;;;;5075814;28;20153;-81
2021/12/16 02:04:16;;;;;;;27.55;10.32;;;8.30;99.90;;;;;;5081898;28;20044;-81
2021/12/16 02:06:57;;;;;;;20.00;11.43;;;8.30;99.90;;;;;;5081370;28;20056;-80
2021/12/16 02:09:28;;;;;;;27.52;11.23;;;8.30;99.90;;;;;;5078237;28;20372;-81
2021/12/16 02:12:01;;;;;;;19.10;10.52;;;8.30;99.90;;;;;;5069349;28;20442;-81
2021/12/16 02:28:22;;;;;;;28.35;11.40;;;8.40;99.90;;;;;;5058287;28;20060;-82
2021/12/16 02:36:31;;;;;;;22.33;9.70;;;8.50;99.90;;;;;;5056910;28;20052;-81
2021/12/16 02:38:57;;;;;;;17.60;10.40;;;8.40;99.90;;;;;;5061981;28;20049;-81
2021/12/16 02:41:24;;;;;;;23.20;10.98;;;8.40;99.90;;;;;;5063953;28;20060;-82
2021/12/16 02:49:21;;;;;;;17.45;10.88;;;8.40;99.90;;;;;;5068297;28;20090;-81
2021/12/16 02:51:48;;;;;;;28.92;13.82;;;8.40;99.90;;;;;;5065593;28;20055;-81
2021/12/16 02:54:15;;;;;;;19.75;11.25;;;8.30;99.90;;;;;;5069828;28;20048;-81
2021/12/16 02:56:41;;;;;;;25.27;11.75;;;8.20;99.90;;;;;;5053568;28;20048;-81
2021/12/16 02:59:08;;;;;;;30.65;12.57;;;8.20;99.90;;;;;;5066056;28;20059;-81
2021/12/16 03:01:34;;;;;;;22.73;12.48;;;8.20;99.90;;;;;;5065194;28;20058;-81
2021/12/16 03:04:01;;;;;;;27.85;12.07;;;8.20;99.90;;;;;;5063945;28;20566;-81
2021/12/16 03:06:30;;;;;;;16.70;10.15;;;8.20;99.90;;;;;;5062890;28;20088;-81
2021/12/16 03:08:56;;;;;;;18.83;10.18;;;8.20;99.90;;;;;;5062731;28;20045;-81
2021/12/16 03:11:27;;;;;;;21.33;10.90;;;8.20;99.90;;;;;;5066417;28;20052;-81
2021/12/16 03:14:15;;;;;;;24.98;11.40;;;8.20;99.90;;;;;;5058913;28;20086;-81
2021/12/16 03:16:51;;;;;;;24.63;11.23;;;8.20;99.90;;;;;;5064467;28;20055;-81
2021/12/16 03:19:24;;;;;;;17.80;11.55;;;8.20;99.90;;;;;;5066320;28;20053;-81
2021/12/16 03:21:55;;;;;;;21.80;11.25;;;8.20;99.90;;;;;;5065216;28;20102;-81
2021/12/16 03:35:31;;;;;;;26.50;11.93;;;8.30;99.90;;;;;;5065064;28;20048;-81
2021/12/16 03:37:57;;;;;;;;;;;8.20;99.90;;;;;;5063790;28;20395;-80
2021/12/16 03:40:25;;;;;;;31.70;10.35;;;8.30;99.90;;;;;;5061477;28;20395;-81
2021/12/16 03:42:52;;;;;;;22.08;10.75;;;8.20;99.90;;;;;;5067221;28;20048;-80
2021/12/16 03:47:59;;;;;;;33.20;12.27;;;8.20;99.90;;;;;;5062499;28;20055;-81
2021/12/16 03:50:25;;;;;;;24.00;11.15;;;8.20;99.90;;;;;;5064772;28;20072;-81
2021/12/16 03:52:52;;;;;;;26.70;12.73;;;8.20;99.90;;;;;;5068021;28;20049;-80
2021/12/16 03:55:19;;;;;;;22.25;12.45;;;8.10;99.90;;;;;;5059897;28;20053;-81
2021/12/16 03:57:45;;;;;;;22.33;12.20;;;8.10;99.90;;;;;;5061683;28;20084;-81
2021/12/16 04:00:12;;;;;;;22.15;12.38;;;8.10;99.90;;;;;;5063295;28;20553;-81
2021/12/16 04:02:38;;;;;;;21.80;11.95;;;8.10;99.90;;;;;;5061816;28;20068;-81
2021/12/16 04:05:05;;;;;;;27.00;14.02;;;8.10;99.90;;;;;;5066433;28;20044;-81
2021/12/16 04:07:31;;;;;;;15.20;11.65;;;8.10;99.90;;;;;;5067524;28;20049;-80
2021/12/16 04:09:58;;;;;;;19.95;11.45;;;8.10;99.90;;;;;;5056716;28;20048;-80
2021/12/16 04:12:26;;;;;;;25.45;12.35;;;8.10;99.90;;;;;;5067091;28;20056;-80
2021/12/16 04:14:53;;;;;;;23.25;11.05;;;8.20;99.90;;;;;;5062261;28;20427;-80
2021/12/16 04:17:19;;;;;;;22.25;10.90;;;8.10;99.90;;;;;;5065471;28;20071;-81
2021/12/16 04:19:46;;;;;;;19.45;10.65;;;8.20;99.90;;;;;;5058325;28;20423;-81
2021/12/16 04:22:16;;;;;;;21.60;12.07;;;8.20;99.90;;;;;;5065590;28;20621;-81
2021/12/16 04:24:42;;;;;;;19.70;11.87;;;8.20;99.90;;;;;;5057593;28;20480;-81
2021/12/16 04:27:09;;;;;;;32.58;11.85;;;8.10;99.90;;;;;;5062668;28;20307;-81
2021/12/16 04:29:35;;;;;;;18.67;11.07;;;8.20;99.90;;;;;;5063329;28;20110;-81
2021/12/16 04:32:02;;;;;;;17.67;10.90;;;8.10;99.90;;;;;;5065554;28;20064;-81
2021/12/16 04:34:28;;;;;;;22.95;12.27;;;8.20;99.90;;;;;;5061861;28;20048;-81
2021/12/16 04:36:55;;;;;;;21.13;11.00;;;8.10;99.90;;;;;;5062028;28;20079;-80
2021/12/16 04:39:21;;;;;;;24.02;11.10;;;8.10;99.90;;;;;;5058666;28;20053;-81
2021/12/16 04:41:50;;;;;;;22.67;10.73;;;8.10;99.90;;;;;;5050669;28;20048;-81
2021/12/16 04:44:16;;;;;;;21.85;11.32;;;8.10;99.90;;;;;;5051168;28;20105;-81
2021/12/16 04:46:43;;;;;;;23.98;11.95;;;8.10;99.90;;;;;;5053837;28;20044;-81
2021/12/16 04:49:09;;;;;;;21.95;11.50;;;8.00;99.90;;;;;;5050923;28;20435;-81
2021/12/16 04:51:36;;;;;;;26.90;11.68;;;8.10;99.90;;;;;;5053321;28;20411;-82
2021/12/16 04:54:03;;;;;;;17.17;9.95;;;8.10;99.90;;;;;;5052241;28;20397;-81
2021/12/16 04:56:29;;;;;;;28.90;13.05;;;8.10;99.90;;;;;;5052073;28;20495;-82
2021/12/16 04:58:56;;;;;;;22.00;11.40;;;8.00;99.90;;;;;;5051237;28;20045;-80
2021/12/16 05:01:22;;;;;;;20.95;10.73;;;8.00;99.90;;;;;;5052801;28;20051;-80
2021/12/16 05:03:49;;;;;;;27.50;11.05;;;8.00;99.90;;;;;;5051688;28;20049;-81
2021/12/16 05:06:16;;;;;;;20.92;11.40;;;8.00;99.90;;;;;;5045489;28;20649;-80
2021/12/16 05:08:42;;;;;;;25.55;11.55;;;8.00;99.90;;;;;;5045055;28;20382;-81
2021/12/16 05:11:09;;;;;;;26.45;11.98;;;8.00;99.90;;;;;;5049007;28;20505;-81
2021/12/16 05:13:36;;;;;;;25.23;12.75;;;8.00;99.90;;;;;;5052151;28;20041;-81
2021/12/16 05:16:04;;;;;;;23.17;10.57;;;8.00;99.90;;;;;;5044104;28;20041;-80
2021/12/16 05:18:33;;;;;;;18.40;10.68;;;8.00;99.90;;;;;;5048676;28;20062;-81
2021/12/16 05:21:00;;;;;;;24.02;11.73;;;8.00;99.90;;;;;;5050400;28;20153;-81
2021/12/16 05:26:19;;;;;;;22.23;11.48;;;8.00;99.90;;;;;;5048590;28;20130;-81
2021/12/16 05:28:46;;;;;;;29.02;12.23;;;8.00;99.90;;;;;;5047253;28;20071;-81
2021/12/16 05:31:13;;;;;;;28.77;13.40;;;8.00;99.90;;;;;;5050529;28;20060;-81
2021/12/16 05:33:39;;;;;;;28.83;12.60;;;8.00;99.90;;;;;;5051511;28;20085;-80
2021/12/16 05:36:06;;;;;;;28.10;12.40;;;8.00;99.90;;;;;;5047799;28;20053;-80
2021/12/16 05:38:32;;;;;;;22.33;10.10;;;8.00;99.90;;;;;;5050639;28;20053;-80
2021/12/16 05:40:59;;;;;;;28.30;12.73;;;8.00;99.90;;;;;;5050710;28;20048;-80
2021/12/16 05:43:25;;;;;;;25.60;12.38;;;8.00;99.90;;;;;;5049948;28;20133;-80
2021/12/16 05:45:52;;;;;;;26.00;11.80;;;8.00;99.90;;;;;;5051160;28;20049;-80
2021/12/16 05:48:18;;;;;;;22.63;12.20;;;8.00;99.90;;;;;;5048596;28;20041;-80
2021/12/16 05:50:45;;;;;;;22.70;11.43;;;8.00;99.90;;;;;;5041958;28;20072;-80
2021/12/16 05:53:11;;;;;;;26.13;12.70;;;8.00;99.90;;;;;;5045371;28;20052;-79
2021/12/16 05:55:38;;;;;;;18.13;11.20;;;8.00;99.90;;;;;;5050460;28;20056;-81
2021/12/16 05:58:06;;;;;;;25.88;11.50;;;8.00;99.90;;;;;;5051306;28;20049;-81
2021/12/16 06:00:32;;;;;;;22.20;11.75;;;7.90;99.90;;;;;;5047890;28;20400;-81
2021/12/16 06:02:59;;;;;;;25.73;12.32;;;8.00;99.90;;;;;;5049457;28;20630;-80
2021/12/16 06:05:26;;;;;;;22.33;12.38;;;7.90;99.90;;;;;;5051419;28;20511;-80
2021/12/16 06:07:52;;;;;;;29.55;11.73;;;7.90;99.90;;;;;;5047732;28;20052;-82
2021/12/16 06:10:52;;;;;;;39.13;11.45;;;7.90;99.90;;;;;;5042501;28;20041;-81
2021/12/16 06:13:11;;;;;;;25.92;10.43;;;7.90;99.90;;;;;;5047182;28;20084;-78
2021/12/16 06:15:46;;;;;;;25.27;16.27;;;8.00;99.90;;;;;;5037108;28;20057;-80
2021/12/16 06:26:51;;;;;;;19.92;11.60;;;7.90;99.90;;;;;;4944813;29;20047;-80
2021/12/16 06:29:18;;;;;;;28.88;12.27;;;7.90;99.90;;;;;;4965188;28;20055;-79
2021/12/16 06:31:44;;;;;;;20.75;11.75;;;7.80;99.90;;;;;;5008251;28;20403;-80
2021/12/16 06:34:11;;;;;;;23.63;11.05;;;7.90;99.90;;;;;;5041927;28;20068;-79
2021/12/16 06:36:37;;;;;;;25.55;11.27;;;7.90;99.90;;;;;;5050097;28;20060;-80
2021/12/16 06:39:04;;;;;;;20.55;11.93;;;7.80;99.90;;;;;;5046894;28;20493;-79
2021/12/16 06:41:34;;;;;;;19.50;11.60;;;7.80;99.90;;;;;;5048811;28;20064;-80
2021/12/16 06:44:04;;;;;;;27.92;13.80;;;7.80;99.90;;;;;;5050279;28;20132;-80
2021/12/16 06:46:35;;;;;;;27.27;12.43;;;7.80;99.90;;;;;;5046278;28;20049;-79
2021/12/16 06:49:02;;;;;;;24.90;12.25;;;7.80;99.90;;;;;;5046811;28;20390;-80
2021/12/16 06:51:38;;;;;;;20.00;11.57;;;7.70;99.90;;;;;;5047464;28;20144;-80
2021/12/16 06:54:08;;;;;;;25.75;11.25;;;7.70;99.90;;;;;;5049467;28;20496;-80
2021/12/16 06:56:42;;;;;;;26.63;12.00;;;7.60;99.90;;;;;;5049229;28;20045;-80
2021/12/16 06:59:19;;;;;;;24.52;12.55;;;7.50;99.90;;;;;;5048726;28;20064;-80
2021/12/16 07:01:59;;;;;;;32.33;11.52;;;7.50;99.90;;;;;;5045184;28;20385;-79
2021/12/16 07:04:26;;;;;;;29.73;12.57;;;7.50;99.90;;;;;;5047141;28;20606;-80
2021/12/16 07:06:52;;;;;;;26.63;13.27;;;7.40;99.90;;;;;;5050092;28;20040;-80
2021/12/16 07:09:19;;;;;;;22.90;11.13;;;7.30;99.90;;;;;;5049543;28;20049;-79
2021/12/16 07:11:47;;;;;;;15.95;11.15;;;7.40;99.90;;;;;;5048765;28;20056;-80
2021/12/16 07:14:16;;;;;;;20.23;11.77;;;7.40;99.90;;;;;;5048923;28;20052;-79
2021/12/16 07:16:42;;;;;;;22.65;12.05;;;7.30;99.90;;;;;;5048538;28;20041;-80
2021/12/16 07:19:09;;;;;;;36.13;12.55;;;7.30;99.90;;;;;;5048211;28;20044;-80
2021/12/16 07:21:37;;;;;;;21.55;11.60;;;7.30;99.90;;;;;;5050005;28;20041;-79
2021/12/16 07:24:04;;;;;;;23.30;12.38;;;7.40;99.90;;;;;;5049965;28;20465;-80
2021/12/16 07:26:31;;;;;;;19.05;11.80;;;7.50;99.90;;;;;;5045678;28;20473;-80
2021/12/16 07:28:57;;;;;;;25.88;12.88;;;7.50;99.90;;;;;;5042249;28;20049;-80
2021/12/16 07:31:24;;;;;;;30.75;13.20;;;7.50;99.90;;;;;;5050105;28;20041;-80
2021/12/16 07:33:50;;;;;;;24.52;13.20;;;7.40;99.90;;;;;;5049904;28;20041;-79
2021/12/16 07:36:18;;;;;;;25.63;12.45;;;7.40;99.90;;;;;;5048344;28;20497;-80
2021/12/16 07:38:45;;;;;;;30.20;13.40;;;7.50;99.90;;;;;;5046156;28;20469;-80
2021/12/16 07:41:12;;;;;;;33.50;13.90;;;7.50;99.90;;;;;;5050251;28;20496;-80
2021/12/16 07:43:54;;;;;;;26.60;12.73;;;7.40;99.90;;;;;;5050601;28;20099;-80
2021/12/16 07:46:21;;;;;;;30.52;11.95;;;7.40;99.90;;;;;;5049769;28;20056;-80
2021/12/16 07:48:48;;;;;;;28.50;12.52;;;7.40;99.90;;;;;;5048320;28;20052;-80
2021/12/16 07:51:14;;;;;;;32.38;13.30;;;7.40;99.90;;;;;;5044878;28;20053;-80
2021/12/16 07:53:41;;;;;;;25.15;13.13;;;7.40;99.90;;;;;;5050521;28;20068;-81
2021/12/16 07:56:07;;;;;;;28.35;13.88;;;7.40;99.90;;;;;;5048997;28;20051;-80
2021/12/16 07:58:34;;;;;;;20.38;13.10;;;7.40;99.90;;;;;;5044748;28;20045;-79
2021/12/16 08:01:00;;;;;;;30.63;14.35;;;7.40;99.90;;;;;;5039068;28;20444;-80
2021/12/16 08:03:34;;;;;;;23.52;13.98;;;7.40;99.90;;;;;;5047476;28;20057;-80
2021/12/16 08:06:00;;;;;;;25.65;13.98;;;7.40;99.90;;;;;;5049306;28;20063;-79
2021/12/16 08:08:27;;;;;;;21.85;13.00;;;7.50;99.90;;;;;;5046145;28;20416;-79
2021/12/16 08:10:53;;;;;;;24.27;12.30;;;7.40;99.90;;;;;;5047614;28;20056;-80
2021/12/16 08:13:20;;;;;;;26.02;11.95;;;7.50;99.90;;;;;;5044922;28;20390;-80
2021/12/16 08:15:46;;;;;;;22.05;13.35;;;7.50;99.90;;;;;;5045619;28;20053;-80
2021/12/16 08:18:13;;;;;;;33.25;13.57;;;7.50;99.90;;;;;;5049464;28;20059;-80
2021/12/16 08:20:40;;;;;;;28.33;11.60;;;7.50;99.90;;;;;;5050064;28;20465;-81
2021/12/16 08:23:07;;;;;;;23.58;12.68;;;7.50;99.90;;;;;;5052935;28;20049;-81
2021/12/16 08:25:33;;;;;;;24.13;13.07;;;7.50;99.90;;;;;;5051773;28;20045;-81
2021/12/16 08:28:00;;;;;;;23.80;13.23;;;7.50;99.90;;;;;;5051314;28;20500;-80
2021/12/16 08:30:27;;;;;;;32.80;14.68;;;7.50;99.90;;;;;;5043579;28;20404;-81
2021/12/16 08:32:54;;;;;;;25.73;14.15;;;7.60;99.90;;;;;;5050315;28;20412;-82
2021/12/16 08:35:20;;;;;;;32.95;14.00;;;7.60;99.90;;;;;;5045196;28;20060;-81
2021/12/16 08:37:47;;;;;;;21.20;13.07;;;7.60;99.90;;;;;;5051427;28;20075;-81
2021/12/16 08:40:13;;;;;;;34.33;13.07;;;7.70;99.90;;;;;;5049605;28;20412;-80
2021/12/16 08:42:40;;;;;;;32.20;14.68;;;7.70;99.90;;;;;;5051634;28;20052;-81
2021/12/16 08:45:06;;;;;;;25.80;13.98;;;7.70;99.90;;;;;;5051156;28;20048;-81
2021/12/16 08:47:33;;;;;;;36.78;14.27;;;7.70;99.90;;;;;;5051124;28;20049;-82
2021/12/16 08:50:00;;;;;;;26.63;14.55;;;7.70;99.90;;;;;;5050154;28;20056;-82
2021/12/16 08:52:26;;;;;;;30.27;13.75;;;7.70;99.90;;;;;;5051544;28;20068;-82
2021/12/16 08:54:53;;;;;;;25.48;13.30;;;7.70;99.90;;;;;;5051558;28;20087;-81
2021/12/16 08:57:19;;;;;;;38.55;16.08;;;7.70;99.90;;;;;;5050627;28;20052;-81
2021/12/16 08:59:47;;;;;;;37.45;15.32;;;7.80;99.90;;;;;;5052155;28;20048;-81
2021/12/16 09:02:14;;;;;;;29.23;14.93;;;7.80;99.90;;;;;;5049311;28;20055;-81
2021/12/16 09:04:41;;;;;;;37.65;14.93;;;7.80;99.90;;;;;;5051786;28;20083;-81
2021/12/16 09:07:07;;;;;;;37.53;16.98;;;7.80;99.90;;;;;;5052458;28;20059;-80
2021/12/16 09:09:35;;;;;;;40.00;16.15;;;7.80;99.90;;;;;;5050225;28;20615;-81
2021/12/16 09:12:08;;;;;;;35.78;15.15;;;7.80;99.90;;;;;;5051843;28;20142;-81
2021/12/16 09:14:35;;;;;;;43.30;16.40;;;7.80;99.90;;;;;;5050234;28;20363;-82
2021/12/16 09:17:01;;;;;;;34.50;15.95;;;7.80;99.90;;;;;;5050611;28;20060;-82
2021/12/16 09:19:28;;;;;;;39.97;15.05;;;7.80;99.90;;;;;;5050353;28;20055;-81
2021/12/16 09:21:55;;;;;;;56.55;17.15;;;7.80;99.90;;;;;;5051783;28;20049;-82
2021/12/16 09:24:21;;;;;;;41.35;17.00;;;7.80;99.90;;;;;;5045679;28;20053;-82
2021/12/16 09:26:48;;;;;;;40.55;16.33;;;7.90;99.90;;;;;;5050568;28;20057;-82
2021/12/16 09:29:14;;;;;;;35.33;16.30;;;7.90;99.90;;;;;;5048829;28;20049;-82
2021/12/16 09:31:41;;;;;;;56.42;17.60;;;7.90;99.90;;;;;;5050867;28;20045;-82
2021/12/16 09:34:08;;;;;;;74.93;17.50;;;8.00;99.90;;;;;;5051299;28;20045;-82
2021/12/16 09:36:35;;;;;;;52.67;17.80;;;8.00;99.90;;;;;;5049359;28;20083;-82
2021/12/16 09:39:01;;;;;;;73.43;17.70;;;8.00;99.90;;;;;;5044814;28;20048;-82
2021/12/16 09:41:28;;;;;;;84.65;18.90;;;8.00;99.90;;;;;;5046811;28;20052;-82
2021/12/16 09:43:54;;;;;;;55.90;18.70;;;8.00;99.90;;;;;;5047452;28;20048;-82
2021/12/16 09:46:21;;;;;;;45.17;18.85;;;8.00;99.90;;;;;;5047454;28;20402;-82
2021/12/16 09:48:47;;;;;;;59.65;18.13;;;8.10;99.90;;;;;;5051339;28;20048;-82
2021/12/16 09:51:16;;;;;;;77.13;20.77;;;8.10;99.90;;;;;;5050864;28;20045;-82
2021/12/16 09:53:43;;;;;;;51.35;18.33;;;8.10;99.90;;;;;;5051155;28;20126;-82
2021/12/16 09:56:09;;;;;;;59.47;17.42;;;8.10;99.90;;;;;;5050816;28;20049;-80
2021/12/16 09:58:36;;;;;;;84.32;20.35;;;8.10;99.90;;;;;;5049224;28;20068;-82
2021/12/16 10:01:02;;;;;;;66.72;20.48;;;8.20;99.90;;;;;;5043830;28;20515;-81
2021/12/16 10:03:29;;;;;;;74.20;20.13;;;8.20;99.90;;;;;;5051594;28;20048;-81
2021/12/16 10:05:56;;;;;;;72.95;21.20;;;8.20;99.90;;;;;;5052186;28;20115;-82
2021/12/16 10:08:22;;;;;;;91.40;21.63;;;8.20;99.90;;;;;;5049610;28;20064;-81
2021/12/16 10:10:49;;;;;;;76.00;23.70;;;8.20;99.90;;;;;;5050551;28;20037;-81
2021/12/16 10:13:23;;;;;;;82.25;21.20;;;8.20;99.90;;;;;;5047501;28;20057;-81
2021/12/16 10:18:33;;;;;;;66.88;19.63;;;8.20;99.90;;;;;;5048587;28;20049;-82
2021/12/16 10:21:00;;;;;;;78.68;23.35;;;8.30;99.90;;;;;;5051723;28;20048;-81
2021/12/16 10:23:26;;;;;;;56.17;22.48;;;8.30;99.90;;;;;;5050738;28;20053;-82
2021/12/16 10:25:53;;;;;;;74.95;21.48;;;8.30;99.90;;;;;;5051501;28;20065;-81
2021/12/16 10:28:23;;;;;;;74.78;22.55;;;8.30;99.90;;;;;;5046778;28;20123;-81
2021/12/16 10:30:49;;;;;;;94.57;26.03;;;8.30;99.90;;;;;;5050051;28;21871;-82
2021/12/16 10:33:16;;;;;;;76.15;22.23;;;8.30;99.90;;;;;;5051609;28;20343;-82
2021/12/16 10:35:47;;;;;;;83.13;23.75;;;8.20;99.90;;;;;;5049796;28;20063;-82
2021/12/16 10:38:13;;;;;;;81.85;25.60;;;8.20;99.90;;;;;;5041276;28;20049;-82
2021/12/16 10:40:43;;;;;;;86.88;23.92;;;8.30;99.90;;;;;;5049216;28;20928;-82
2021/12/16 10:43:10;;;;;;;58.92;22.13;;;8.20;99.90;;;;;;5042988;28;20401;-82
2021/12/16 10:45:36;;;;;;;115.47;27.25;;;8.30;99.90;;;;;;5042914;28;20049;-82
2021/12/16 10:48:03;;;;;;;80.15;26.30;;;8.30;99.90;;;;;;5048657;28;20049;-81
2021/12/16 10:50:29;;;;;;;70.25;23.17;;;8.30;99.90;;;;;;5047056;28;20048;-82
2021/12/16 10:52:56;;;;;;;87.30;25.15;;;8.30;99.90;;;;;;5047243;28;21301;-82
2021/12/16 10:55:22;;;;;;;72.45;23.85;;;8.30;99.90;;;;;;5045536;28;20045;-81
2021/12/16 10:57:49;;;;;;;68.93;24.02;;;8.30;99.90;;;;;;5045793;28;20088;-82
2021/12/16 11:00:16;;;;;;;83.40;23.17;;;8.30;99.90;;;;;;5049676;28;20507;-81
2021/12/16 11:02:43;;;;;;;76.10;23.80;;;8.30;99.90;;;;;;5049246;28;20055;-81
2021/12/16 11:05:09;;;;;;;71.03;24.50;;;8.30;99.90;;;;;;5049277;28;20053;-81
2021/12/16 11:07:36;;;;;;;72.53;24.92;;;8.30;99.90;;;;;;5045348;28;20049;-81
2021/12/16 11:10:03;;;;;;;112.25;27.42;;;8.40;99.90;;;;;;5047140;28;20540;-81
2021/12/16 11:12:29;;;;;;;84.90;25.58;;;8.40;99.90;;;;;;5049478;28;20053;-80
2021/12/16 11:14:56;;;;;;;72.68;26.55;;;8.40;99.90;;;;;;5048595;28;20060;-79
2021/12/16 11:17:22;;;;;;;125.10;26.83;;;8.40;99.90;;;;;;5049061;28;20049;-79
2021/12/16 11:19:49;;;;;;;57.53;21.30;;;8.40;99.90;;;;;;5048309;28;20393;-79
2021/12/16 11:22:15;;;;;;;136.70;28.80;;;8.40;99.90;;;;;;5048396;28;20404;-79
2021/12/16 11:24:42;;;;;;;77.30;24.38;;;8.40;99.90;;;;;;5048651;28;20404;-79
2021/12/16 11:27:09;;;;;;;110.70;27.70;;;8.40;99.90;;;;;;5049215;28;20049;-79
2021/12/16 11:29:35;;;;;;;97.25;24.52;;;8.40;99.90;;;;;;5043994;28;20052;-79
2021/12/16 11:32:02;;;;;;;53.40;19.30;;;8.40;99.90;;;;;;5049576;28;20060;-79
2021/12/16 11:34:28;;;;;;;93.20;25.77;;;8.40;99.90;;;;;;5048883;28;20059;-79
2021/12/16 11:36:55;;;;;;;59.60;21.80;;;8.40;99.90;;;;;;5049724;28;20112;-79
2021/12/16 11:39:22;;;;;;;71.15;22.75;;;8.40;99.90;;;;;;5049979;28;20081;-79
2021/12/16 11:41:48;;;;;;;52.67;20.75;;;8.40;99.90;;;;;;5045739;28;20108;-80
2021/12/16 11:44:16;;;;;;;63.00;23.42;;;8.40;99.90;;;;;;5041863;28;20511;-79
2021/12/16 11:46:42;;;;;;;96.45;25.73;;;8.40;99.90;;;;;;5051677;28;20048;-80
2021/12/16 11:49:09;;;;;;;52.35;23.33;;;8.40;99.90;;;;;;5050222;28;20048;-80
2021/12/16 11:51:35;;;;;;;53.63;21.80;;;8.40;99.90;;;;;;5048196;28;20049;-80
2021/12/16 11:54:02;;;;;;;68.53;23.40;;;8.40;99.90;;;;;;5051609;28;20044;-80
2021/12/16 11:56:28;;;;;;;93.13;26.70;;;8.40;99.90;;;;;;5051271;28;20045;-83
2021/12/16 11:58:55;;;;;;;64.28;23.73;;;8.40;99.90;;;;;;5050913;28;20076;-80
2021/12/16 12:01:21;;;;;;;90.90;23.70;;;8.40;99.90;;;;;;5053671;28;20037;-80
2021/12/16 12:03:48;;;;;;;65.07;21.30;;;8.40;99.90;;;;;;5051748;28;20045;-80
2021/12/16 12:06:15;;;;;;;55.90;24.75;;;8.40;99.90;;;;;;5050207;28;20044;-80
2021/12/16 12:08:41;;;;;;;46.65;20.95;;;8.40;99.90;;;;;;5053509;28;20045;-80
2021/12/16 12:11:09;;;;;;;47.25;22.52;;;8.50;99.90;;;;;;5049161;28;20053;-80
2021/12/16 12:13:36;;;;;;;55.60;25.27;;;8.50;99.90;;;;;;5050628;28;20060;-80
2021/12/16 12:16:03;;;;;;;43.17;20.58;;;8.50;99.90;;;;;;5051037;28;20389;-80
2021/12/16 12:18:29;;;;;;;47.58;22.23;;;8.50;99.90;;;;;;5053284;28;20045;-80
2021/12/16 12:20:56;;;;;;;44.63;23.35;;;8.50;99.90;;;;;;5052086;28;20055;-80
2021/12/16 12:23:22;;;;;;;62.60;23.10;;;8.50;99.90;;;;;;5049877;28;20049;-81
2021/12/16 12:25:49;;;;;;;44.75;23.45;;;8.50;99.90;;;;;;5048239;28;20060;-80
2021/12/16 12:28:15;;;;;;;49.65;20.90;;;8.50;99.90;;;;;;5039279;28;20053;-80
2021/12/16 12:30:42;;;;;;;61.30;25.60;;;8.50;99.90;;;;;;5044940;28;20056;-80
2021/12/16 12:33:08;;;;;;;53.85;23.65;;;8.50;99.90;;;;;;5052786;28;20044;-80
2021/12/16 12:35:35;;;;;;;41.85;19.85;;;8.50;99.90;;;;;;5048352;28;20129;-81
2021/12/16 12:38:02;;;;;;;43.30;20.52;;;8.50;99.90;;;;;;5049111;28;20057;-80
2021/12/16 12:40:28;;;;;;;58.00;20.80;;;8.50;99.90;;;;;;5051568;28;20048;-81
2021/12/16 12:42:55;;;;;;;47.28;20.38;;;8.50;99.90;;;;;;5053511;28;20056;-81
2021/12/16 12:45:21;;;;;;;49.30;21.40;;;8.50;99.90;;;;;;5050419;28;20080;-81
2021/12/16 12:47:48;;;;;;;51.30;22.45;;;8.50;99.90;;;;;;5042289;28;20057;-81
2021/12/16 12:50:14;;;;;;;57.55;24.08;;;8.50;99.90;;;;;;5053594;28;20514;-79
2021/12/16 12:52:41;;;;;;;39.72;21.00;;;8.50;99.90;;;;;;5043081;28;20060;-80
2021/12/16 12:55:07;;;;;;;41.50;21.52;;;8.50;99.90;;;;;;5048429;28;20057;-81
2021/12/16 12:57:34;;;;;;;44.45;21.02;;;8.50;99.90;;;;;;5047798;28;20049;-81
2021/12/16 13:00:01;;;;;;;48.25;23.55;;;8.50;99.90;;;;;;5051819;28;20056;-81
2021/12/16 13:02:29;;;;;;;45.67;20.98;;;8.50;99.90;;;;;;5050709;28;20049;-81
2021/12/16 13:04:55;;;;;;;48.85;21.77;;;8.50;99.90;;;;;;5049045;28;20400;-80
2021/12/16 13:07:22;;;;;;;53.85;23.15;;;8.50;99.90;;;;;;5043772;28;20415;-80
2021/12/16 13:09:48;;;;;;;41.28;21.60;;;8.50;99.90;;;;;;5052301;28;20045;-81
2021/12/16 13:12:15;;;;;;;39.13;19.00;;;8.50;99.90;;;;;;5041881;28;20061;-81
2021/12/16 13:14:47;;;;;;;37.03;21.58;;;8.50;99.90;;;;;;5052911;28;20049;-80
2021/12/16 13:17:41;;;;;;;36.85;21.75;;;8.50;99.90;;;;;;5046112;28;20057;-80
2021/12/16 13:26:05;;;;;;;37.75;19.60;;;8.60;99.90;;;;;;5051057;28;20086;-81
2021/12/16 13:28:43;;;;;;;43.72;19.55;;;8.60;99.90;;;;;;5046709;28;20070;-80
2021/12/16 13:31:09;;;;;;;40.30;22.88;;;8.50;99.90;;;;;;5047865;28;20393;-80
2021/12/16 13:33:39;;;;;;;46.83;23.15;;;8.60;99.90;;;;;;5050663;28;20049;-81
2021/12/16 13:36:14;;;;;;;49.55;24.85;;;8.60;99.90;;;;;;5050570;28;20053;-80
2021/12/16 13:38:41;;;;;;;42.90;25.75;;;8.60;99.90;;;;;;5050457;28;20477;-81
2021/12/16 13:41:07;;;;;;;50.80;27.13;;;8.50;99.90;;;;;;5048097;28;20507;-80
2021/12/16 13:43:34;;;;;;;62.25;28.02;;;8.50;99.90;;;;;;5046157;28;20492;-81
2021/12/16 13:46:13;;;;;;;44.58;26.83;;;8.50;99.90;;;;;;5049070;28;20064;-81
2021/12/16 13:48:52;;;;;;;50.97;27.75;;;8.50;99.90;;;;;;5049708;28;20076;-80
2021/12/16 14:02:38;;;;;;;49.83;26.20;;;8.50;99.90;;;;;;5047531;28;20053;-80
2021/12/16 14:05:16;;;;;;;56.38;26.83;;;8.50;99.90;;;;;;5049199;28;20061;-80
2021/12/16 14:07:54;;;;;;;62.08;25.00;;;8.50;99.90;;;;;;5049741;28;20393;-80
2021/12/16 14:10:23;;;;;;;52.05;25.40;;;8.50;99.90;;;;;;5049333;28;20160;-80
2021/12/16 14:15:43;;;;;;;42.45;23.08;;;8.60;99.90;;;;;;5043667;28;20045;-80
2021/12/16 14:18:14;;;;;;;54.58;24.05;;;8.50;99.90;;;;;;5046047;28;20134;-81
2021/12/16 14:23:30;;;;;;;66.68;26.27;;;8.50;99.90;;;;;;5044740;28;20049;-81
2021/12/16 14:37:47;;;;;;;68.35;27.75;;;8.50;99.90;;;;;;4990203;28;20053;-81
2021/12/16 14:40:35;;;;;;;56.40;25.70;;;8.50;99.90;;;;;;5047273;28;20053;-81
2021/12/16 14:43:16;;;;;;;51.22;25.15;;;8.50;99.90;;;;;;5046262;28;20057;-81
2021/12/16 14:45:45;;;;;;;63.22;29.88;;;8.50;99.90;;;;;;5032850;28;20066;-81
2021/12/16 14:48:25;;;;;;;60.40;24.77;;;8.50;99.90;;;;;;5037058;28;20679;-81
2021/12/16 14:50:51;;;;;;;48.58;23.63;;;8.50;99.90;;;;;;5046707;28;20128;-81
2021/12/16 14:53:18;;;;;;;46.88;24.25;;;8.50;99.90;;;;;;5046274;28;20053;-81
2021/12/16 14:55:44;;;;;;;42.63;22.55;;;8.40;99.90;;;;;;5047788;28;20056;-80
2021/12/16 14:58:11;;;;;;;50.47;25.15;;;8.50;99.90;;;;;;5044089;28;20060;-81
2021/12/16 15:00:40;;;;;;;44.97;25.65;;;8.40;99.90;;;;;;5046940;28;20044;-81
2021/12/16 15:03:08;;;;;;;55.42;27.52;;;8.50;99.90;;;;;;5045735;28;20053;-80
2021/12/16 15:05:37;;;;;;;46.53;24.42;;;8.40;99.90;;;;;;5046354;28;20051;-81
2021/12/16 15:08:04;;;;;;;45.75;23.60;;;8.50;99.90;;;;;;5037831;28;20052;-81
2021/12/16 15:10:30;;;;;;;49.42;24.75;;;8.40;99.90;;;;;;5036183;28;20053;-80
2021/12/16 15:13:02;;;;;;;52.08;24.73;;;8.50;99.90;;;;;;5041724;28;20064;-81
2021/12/16 15:15:35;;;;;;;44.03;23.05;;;8.50;99.90;;;;;;5045019;28;20052;-81
2021/12/16 15:37:51;;;;;;;46.55;19.73;;;8.50;99.90;;;;;;5044564;28;20053;-81
2021/12/16 15:40:32;;;;;;;40.50;20.08;;;8.60;99.90;;;;;;5044383;28;20049;-81
2021/12/16 15:43:00;;;;;;;;;;;8.60;99.90;;;;;;5044600;28;20056;-81